Time;durP1;ratioP1;P1;durP2;ratioP2;P2;SDS_P1;SDS_P2;PMS_P1;PMS_P2;Temp;Humidity;BMP_temperature;BMP_pressure;BME280_temperature;BME280_humidity;BME280_pressure;Samples;Min_cycle;Max_cycle;Signal;HPM_P1;HPM_P2
2021/03/16 00:00:14;;;;;;;5.00;3.30;;;4.80;99.30;;;;;;5122302;27;20476;-44
2021/03/16 00:02:41;;;;;;;6.10;3.20;;;4.70;96.30;;;;;;5140748;27;20443;-43
2021/03/16 00:05:07;;;;;;;8.07;3.13;;;4.60;95.70;;;;;;5140259;27;20438;-43
2021/03/16 00:07:33;;;;;;;4.40;3.10;;;4.40;95.80;;;;;;5130728;27;20476;-41
2021/03/16 00:09:59;;;;;;;4.80;3.17;;;4.40;95.90;;;;;;5140149;27;20409;-41
2021/03/16 00:12:25;;;;;;;6.57;3.23;;;4.30;95.80;;;;;;5140595;27;20172;-43
2021/03/16 00:14:51;;;;;;;7.70;3.40;;;4.30;95.90;;;;;;5140810;27;20855;-43
2021/03/16 00:17:17;;;;;;;5.20;3.77;;;4.20;95.60;;;;;;5121385;27;20567;-42
2021/03/16 00:19:44;;;;;;;4.80;3.70;;;4.20;95.80;;;;;;5139339;27;20171;-42
2021/03/16 00:22:10;;;;;;;7.33;3.87;;;4.10;95.90;;;;;;5140061;27;20182;-43
2021/03/16 00:24:36;;;;;;;6.73;3.77;;;4.00;95.80;;;;;;5139784;27;20489;-43
2021/03/16 00:27:02;;;;;;;5.87;3.67;;;4.00;95.90;;;;;;5139766;27;20545;-43
2021/03/16 00:29:27;;;;;;;5.73;3.40;;;4.00;95.50;;;;;;5121414;27;20208;-43
2021/03/16 00:31:53;;;;;;;5.80;3.47;;;4.00;95.70;;;;;;5139529;27;20250;-40
2021/03/16 00:34:19;;;;;;;6.43;3.43;;;4.00;95.30;;;;;;5138311;27;20167;-42
2021/03/16 00:36:44;;;;;;;8.60;3.70;;;3.90;95.40;;;;;;5138972;27;20317;-42
2021/03/16 00:39:10;;;;;;;8.33;3.83;;;3.90;95.10;;;;;;5121012;27;20179;-41
2021/03/16 00:41:36;;;;;;;4.57;3.43;;;3.90;95.10;;;;;;5138985;27;20167;-42
2021/03/16 00:44:02;;;;;;;5.07;3.20;;;3.90;94.70;;;;;;5139751;27;20504;-43
2021/03/16 00:46:28;;;;;;;4.20;3.80;;;3.90;94.60;;;;;;5139824;27;20285;-42
2021/03/16 00:48:53;;;;;;;6.83;3.90;;;3.90;94.50;;;;;;5139790;27;20913;-41
2021/03/16 00:51:19;;;;;;;4.77;3.20;;;3.90;94.60;;;;;;5140091;27;20167;-42
2021/03/16 00:53:45;;;;;;;5.83;4.10;;;3.90;94.40;;;;;;5139761;27;20246;-43
2021/03/16 00:56:11;;;;;;;5.90;3.30;;;3.90;94.10;;;;;;5120814;27;20557;-42
2021/03/16 00:58:36;;;;;;;5.20;3.60;;;3.90;94.30;;;;;;5139245;27;20885;-43
2021/03/16 01:01:07;;;;;;;8.57;4.00;;;3.90;94.50;;;;;;5140032;27;20460;-42
2021/03/16 01:03:33;;;;;;;4.97;3.60;;;4.00;94.50;;;;;;5139324;27;20518;-41
2021/03/16 01:05:59;;;;;;;3.53;2.90;;;3.90;94.50;;;;;;5138723;27;20420;-43
2021/03/16 01:08:25;;;;;;;7.30;4.23;;;3.90;94.50;;;;;;5139719;27;20429;-42
2021/03/16 01:10:52;;;;;;;6.23;5.73;;;3.90;95.00;;;;;;5139281;27;20754;-41
2021/03/16 01:13:18;;;;;;;4.73;3.03;;;3.80;95.20;;;;;;5139192;27;20207;-43
2021/03/16 01:15:44;;;;;;;4.50;3.90;;;3.90;95.40;;;;;;5139019;27;20409;-43
2021/03/16 01:18:10;;;;;;;4.10;3.57;;;3.80;95.70;;;;;;5138886;27;20892;-43
2021/03/16 01:20:36;;;;;;;6.90;4.20;;;3.70;96.30;;;;;;5138858;27;20412;-41
2021/03/16 01:23:02;;;;;;;5.47;4.20;;;3.70;96.50;;;;;;5120849;27;20274;-42
2021/03/16 01:25:27;;;;;;;6.20;4.43;;;3.60;96.90;;;;;;5138767;27;20416;-42
2021/03/16 01:27:55;;;;;;;6.27;3.97;;;3.60;97.00;;;;;;5139593;27;20464;-43
2021/03/16 01:30:21;;;;;;;6.67;5.13;;;3.50;97.10;;;;;;5139284;27;20186;-43
2021/03/16 01:32:47;;;;;;;8.00;4.57;;;3.40;97.50;;;;;;5120868;27;20521;-43
2021/03/16 01:35:15;;;;;;;5.37;4.10;;;3.40;97.60;;;;;;5138876;27;20439;-42
2021/03/16 01:37:41;;;;;;;9.20;4.53;;;3.40;97.80;;;;;;5138388;27;20384;-41
2021/03/16 01:40:15;;;;;;;9.33;3.90;;;3.30;97.90;;;;;;5139088;27;20814;-41
2021/03/16 01:42:42;;;;;;;9.20;5.70;;;3.30;98.10;;;;;;5138391;27;20528;-41
2021/03/16 01:45:17;;;;;;;6.67;4.10;;;3.20;98.20;;;;;;5138883;27;20412;-42
2021/03/16 01:47:50;;;;;;;8.87;4.40;;;3.30;98.40;;;;;;5138727;27;20463;-43
2021/03/16 01:50:20;;;;;;;7.80;4.47;;;3.30;98.30;;;;;;5137492;28;20421;-43
2021/03/16 01:52:47;;;;;;;7.37;4.77;;;3.30;98.40;;;;;;5138285;27;20433;-42
2021/03/16 01:55:14;;;;;;;7.43;4.97;;;3.30;98.40;;;;;;5138021;28;20482;-42
2021/03/16 01:57:40;;;;;;;6.10;4.53;;;3.30;98.30;;;;;;5138539;28;20440;-42
2021/03/16 02:00:09;;;;;;;10.40;4.60;;;3.30;98.40;;;;;;5138282;28;20443;-42
2021/03/16 02:02:35;;;;;;;8.53;4.37;;;3.30;98.30;;;;;;5121885;28;20736;-42
2021/03/16 02:05:04;;;;;;;4.67;4.20;;;3.20;98.20;;;;;;5138376;28;20466;-43
2021/03/16 02:07:34;;;;;;;5.60;4.13;;;3.20;98.50;;;;;;5137552;28;20478;-42
2021/03/16 02:10:09;;;;;;;7.40;4.70;;;3.10;98.60;;;;;;5119969;28;20439;-42
2021/03/16 02:13:04;;;;;;;11.37;4.77;;;3.10;98.50;;;;;;5138157;28;20508;-42
2021/03/16 02:15:34;;;;;;;5.83;4.30;;;3.20;98.60;;;;;;5120158;28;20436;-42
2021/03/16 02:18:04;;;;;;;6.57;4.70;;;3.10;98.60;;;;;;5138041;28;20439;-41
2021/03/16 02:20:46;;;;;;;8.53;4.77;;;3.20;98.60;;;;;;5138171;28;20416;-39
2021/03/16 02:23:17;;;;;;;8.90;5.60;;;3.10;98.70;;;;;;5120279;28;20434;-41
2021/03/16 02:26:08;;;;;;;5.10;4.00;;;3.10;98.70;;;;;;5138599;28;20492;-41
2021/03/16 02:29:05;;;;;;;5.50;4.33;;;3.10;98.60;;;;;;5138594;28;20437;-42
2021/03/16 02:31:30;;;;;;;7.13;5.60;;;3.10;98.60;;;;;;5132357;28;20420;-41
2021/03/16 02:33:56;;;;;;;10.80;5.30;;;3.10;98.70;;;;;;5120140;28;20417;-41
2021/03/16 02:36:23;;;;;;;6.53;4.73;;;3.10;98.60;;;;;;5119672;28;20186;-43
2021/03/16 02:38:51;;;;;;;5.90;3.80;;;3.10;98.70;;;;;;5137656;28;20461;-41
2021/03/16 02:41:18;;;;;;;5.40;4.20;;;3.20;98.70;;;;;;5137997;28;20473;-40
2021/03/16 02:44:17;;;;;;;9.47;4.30;;;3.20;98.70;;;;;;5138736;28;20449;-41
2021/03/16 02:46:46;;;;;;;7.00;5.17;;;3.20;98.60;;;;;;5137206;28;20552;-41
2021/03/16 02:49:12;;;;;;;8.63;5.23;;;3.10;98.60;;;;;;5137878;28;20496;-42
2021/03/16 02:51:38;;;;;;;17.63;4.80;;;3.10;98.60;;;;;;5119700;28;20431;-43
2021/03/16 02:54:04;;;;;;;8.63;5.43;;;3.10;98.60;;;;;;5137298;28;20894;-42
2021/03/16 02:56:31;;;;;;;7.40;4.77;;;3.10;98.70;;;;;;5137497;28;20416;-42
2021/03/16 02:58:57;;;;;;;9.27;5.30;;;3.10;99.00;;;;;;5119184;28;20535;-43
2021/03/16 03:01:23;;;;;;;8.23;5.10;;;3.10;98.70;;;;;;5119874;28;20412;-42
2021/03/16 03:03:50;;;;;;;8.33;3.93;;;3.10;98.70;;;;;;5138055;28;20703;-43
2021/03/16 03:06:17;;;;;;;6.27;4.13;;;3.10;98.70;;;;;;5122367;27;20202;-43
2021/03/16 03:08:44;;;;;;;7.27;5.00;;;3.00;98.70;;;;;;5123097;27;20459;-42
2021/03/16 03:11:10;;;;;;;7.43;4.70;;;3.10;98.70;;;;;;5141744;27;20454;-43
2021/03/16 03:13:36;;;;;;;8.97;5.60;;;3.10;98.70;;;;;;5141198;27;20432;-42
2021/03/16 03:16:02;;;;;;;8.97;4.50;;;3.00;98.70;;;;;;5141267;27;20452;-41
2021/03/16 03:18:28;;;;;;;7.30;4.23;;;3.00;98.60;;;;;;5141517;27;20269;-42
2021/03/16 03:20:53;;;;;;;5.73;3.93;;;2.90;98.70;;;;;;5141245;27;20550;-42
2021/03/16 03:23:25;;;;;;;10.63;4.07;;;3.00;99.00;;;;;;5123097;27;20553;-43
2021/03/16 03:26:16;;;;;;;12.27;4.83;;;3.00;98.70;;;;;;5123434;27;20189;-42
2021/03/16 03:28:43;;;;;;;6.20;4.47;;;3.00;98.60;;;;;;5123133;27;20433;-43
2021/03/16 03:31:09;;;;;;;10.87;4.23;;;2.90;98.70;;;;;;5122743;27;20389;-42
2021/03/16 03:33:36;;;;;;;8.53;4.63;;;2.90;99.00;;;;;;5122819;27;20416;-43
2021/03/16 03:36:03;;;;;;;9.53;4.60;;;2.90;99.00;;;;;;5122961;27;20829;-42
2021/03/16 03:38:29;;;;;;;9.27;4.63;;;2.80;99.00;;;;;;5140751;27;20512;-41
2021/03/16 03:40:55;;;;;;;8.23;4.33;;;2.80;98.90;;;;;;5123102;27;20396;-41
2021/03/16 03:43:21;;;;;;;7.83;4.87;;;2.80;99.00;;;;;;5122670;27;20773;-41
2021/03/16 03:45:51;;;;;;;6.03;4.10;;;2.80;99.10;;;;;;5122424;27;20440;-40
2021/03/16 03:48:17;;;;;;;9.23;5.40;;;2.90;99.10;;;;;;5140969;27;20460;-42
2021/03/16 03:50:44;;;;;;;9.90;5.20;;;2.90;98.80;;;;;;5122197;27;20436;-42
2021/03/16 03:53:10;;;;;;;6.90;4.10;;;2.80;98.60;;;;;;5140454;27;20524;-41
2021/03/16 03:55:36;;;;;;;6.70;4.13;;;2.90;98.50;;;;;;5122639;27;20405;-40
2021/03/16 03:58:03;;;;;;;6.30;4.07;;;2.90;98.50;;;;;;5122644;27;20428;-39
2021/03/16 04:00:30;;;;;;;9.40;5.13;;;2.90;98.70;;;;;;5140735;27;20409;-43
2021/03/16 04:02:56;;;;;;;6.20;4.23;;;2.90;98.40;;;;;;5140492;27;20428;-41
2021/03/16 04:05:22;;;;;;;12.40;4.47;;;2.90;98.20;;;;;;5140782;27;20822;-41
2021/03/16 04:07:48;;;;;;;6.60;4.57;;;2.90;98.30;;;;;;5140098;27;20479;-41
2021/03/16 04:10:15;;;;;;;6.80;4.17;;;2.90;98.00;;;;;;5139818;27;20447;-40
2021/03/16 04:12:41;;;;;;;7.47;4.47;;;2.90;97.90;;;;;;5140386;27;20432;-43
2021/03/16 04:15:09;;;;;;;9.53;4.57;;;2.90;97.90;;;;;;5140454;27;20405;-41
2021/03/16 04:17:36;;;;;;;5.67;4.10;;;3.00;97.80;;;;;;5138821;27;20767;-42
2021/03/16 04:20:05;;;;;;;5.77;3.80;;;3.00;97.80;;;;;;5140243;27;20576;-41
2021/03/16 04:22:30;;;;;;;5.63;3.60;;;3.00;97.90;;;;;;5139728;27;20432;-41
2021/03/16 04:24:56;;;;;;;5.53;3.70;;;3.00;97.70;;;;;;5121049;27;20829;-41
2021/03/16 04:27:23;;;;;;;6.60;3.80;;;3.10;97.50;;;;;;5139851;27;20207;-41
2021/03/16 04:29:49;;;;;;;7.00;3.00;;;3.10;97.30;;;;;;5139592;27;20868;-43
2021/03/16 04:32:14;;;;;;;6.50;3.77;;;3.10;97.20;;;;;;5133810;27;20425;-42
2021/03/16 04:34:40;;;;;;;5.27;3.23;;;3.00;97.30;;;;;;5118034;28;20236;-40
2021/03/16 04:37:06;;;;;;;8.27;3.23;;;3.00;97.20;;;;;;5117649;28;20258;-42
2021/03/16 04:39:31;;;;;;;4.87;2.90;;;3.00;96.90;;;;;;5116120;28;20194;-41
2021/03/16 04:41:57;;;;;;;5.10;2.80;;;3.00;96.70;;;;;;5116722;28;20627;-40
2021/03/16 04:44:23;;;;;;;7.43;3.10;;;3.00;96.60;;;;;;5117051;28;20171;-40
2021/03/16 04:46:48;;;;;;;7.27;3.10;;;3.00;96.70;;;;;;5117157;28;20578;-40
2021/03/16 04:49:14;;;;;;;6.43;3.10;;;3.00;96.70;;;;;;5117866;28;20413;-42
2021/03/16 04:51:40;;;;;;;6.87;3.10;;;3.00;96.70;;;;;;5118200;28;20504;-42
2021/03/16 04:54:06;;;;;;;4.67;2.50;;;2.90;96.90;;;;;;5118355;28;20545;-41
2021/03/16 04:56:31;;;;;;;5.00;2.63;;;2.90;97.00;;;;;;5118642;28;20410;-41
2021/03/16 04:58:57;;;;;;;4.00;2.33;;;2.90;97.00;;;;;;5118795;28;20179;-40
2021/03/16 05:01:23;;;;;;;4.87;2.90;;;2.80;97.10;;;;;;5118458;28;20171;-42
2021/03/16 05:03:48;;;;;;;5.70;2.93;;;2.80;97.00;;;;;;5117873;28;20184;-42
2021/03/16 05:06:14;;;;;;;12.03;3.30;;;2.90;96.90;;;;;;5118039;28;20231;-39
2021/03/16 05:08:40;;;;;;;4.10;2.80;;;2.90;97.00;;;;;;5118527;28;20248;-43
2021/03/16 05:11:05;;;;;;;4.30;2.97;;;2.80;97.00;;;;;;5117302;28;20172;-42
2021/03/16 05:13:31;;;;;;;6.30;3.03;;;2.80;97.20;;;;;;5118836;28;20243;-42
2021/03/16 05:15:57;;;;;;;7.50;3.60;;;2.80;97.20;;;;;;5118347;28;20230;-43
2021/03/16 05:18:22;;;;;;;10.10;3.10;;;2.80;97.10;;;;;;5118065;28;20506;-41
2021/03/16 05:20:48;;;;;;;5.60;3.50;;;2.80;97.30;;;;;;5117691;28;20263;-41
2021/03/16 05:23:14;;;;;;;6.50;3.87;;;2.90;97.30;;;;;;5117582;28;20190;-43
2021/03/16 05:25:39;;;;;;;5.97;3.20;;;2.90;97.40;;;;;;5117471;28;20175;-41
2021/03/16 05:28:05;;;;;;;6.17;2.80;;;2.90;97.10;;;;;;5117100;28;20218;-41
2021/03/16 05:30:31;;;;;;;3.40;2.47;;;2.80;97.20;;;;;;5116834;28;20167;-40
2021/03/16 05:33:00;;;;;;;4.37;2.90;;;2.80;97.30;;;;;;5115916;28;20503;-42
2021/03/16 05:35:27;;;;;;;6.73;3.40;;;2.80;97.40;;;;;;5117372;28;20413;-42
2021/03/16 05:37:54;;;;;;;6.10;3.50;;;2.80;97.50;;;;;;5117331;28;20426;-42
2021/03/16 05:40:19;;;;;;;3.80;2.70;;;2.80;97.40;;;;;;5117219;28;20421;-42
2021/03/16 05:42:46;;;;;;;9.57;3.23;;;2.90;97.40;;;;;;5117950;28;20421;-42
2021/03/16 05:45:13;;;;;;;7.37;3.47;;;3.00;97.40;;;;;;5116709;28;20427;-42
2021/03/16 05:47:39;;;;;;;7.30;3.23;;;2.90;97.10;;;;;;5114854;28;20511;-43
2021/03/16 05:50:05;;;;;;;5.93;3.20;;;3.00;97.20;;;;;;5114258;28;20520;-42
2021/03/16 05:52:31;;;;;;;5.57;2.97;;;3.00;97.20;;;;;;5115141;28;20750;-42
2021/03/16 05:54:57;;;;;;;11.43;4.03;;;3.00;97.20;;;;;;5115659;28;20456;-43
2021/03/16 05:57:23;;;;;;;6.60;3.50;;;3.00;97.40;;;;;;5114523;28;20176;-43
2021/03/16 05:59:49;;;;;;;5.60;3.17;;;3.00;97.10;;;;;;5115038;28;20553;-42
2021/03/16 06:02:18;;;;;;;6.63;3.23;;;3.10;97.10;;;;;;5116140;28;20895;-43
2021/03/16 06:04:44;;;;;;;4.67;3.37;;;3.10;97.00;;;;;;5117464;28;20526;-42
2021/03/16 06:07:16;;;;;;;9.27;5.80;;;3.10;97.00;;;;;;5117084;28;20735;-43
2021/03/16 06:09:42;;;;;;;6.90;3.00;;;3.10;96.90;;;;;;5116501;28;20799;-43
2021/03/16 06:12:08;;;;;;;3.30;3.00;;;3.10;96.80;;;;;;5117327;28;20460;-43
2021/03/16 06:14:35;;;;;;;12.37;3.60;;;3.10;96.70;;;;;;5117635;28;20486;-44
2021/03/16 06:17:01;;;;;;;8.27;3.27;;;3.10;96.80;;;;;;5115825;28;20473;-42
2021/03/16 06:19:32;;;;;;;4.70;2.73;;;3.10;97.00;;;;;;5116351;28;20692;-43
2021/03/16 06:22:05;;;;;;;12.23;3.47;;;3.20;97.10;;;;;;5116247;28;20843;-43
2021/03/16 06:24:31;;;;;;;6.53;2.83;;;3.10;97.10;;;;;;5116546;28;20417;-42
2021/03/16 06:26:57;;;;;;;5.40;3.50;;;3.20;96.90;;;;;;5112224;28;20469;-42
2021/03/16 06:29:24;;;;;;;7.40;3.50;;;3.30;96.80;;;;;;5103466;28;20485;-42
2021/03/16 06:31:51;;;;;;;5.17;3.43;;;3.30;96.60;;;;;;5112592;28;20915;-39
2021/03/16 06:34:24;;;;;;;4.70;3.37;;;3.20;96.40;;;;;;5121920;28;20427;-43
2021/03/16 06:37:00;;;;;;;5.63;2.70;;;3.10;96.60;;;;;;5107947;28;20406;-41
2021/03/16 06:39:26;;;;;;;6.77;3.20;;;3.10;96.70;;;;;;5105074;28;20706;-43
2021/03/16 06:41:53;;;;;;;6.43;2.77;;;3.20;96.80;;;;;;5108211;28;20402;-43
2021/03/16 06:44:20;;;;;;;10.57;3.50;;;3.30;96.70;;;;;;5108972;28;20417;-43
2021/03/16 06:46:57;;;;;;;8.63;3.10;;;3.30;96.60;;;;;;5110103;28;20453;-42
2021/03/16 06:49:24;;;;;;;7.47;3.20;;;3.20;97.00;;;;;;5110843;28;20561;-41
2021/03/16 06:51:51;;;;;;;6.43;2.80;;;3.10;97.40;;;;;;5119294;28;20516;-43
2021/03/16 06:54:22;;;;;;;5.87;3.20;;;3.10;97.50;;;;;;5118129;28;20675;-43
2021/03/16 06:57:01;;;;;;;7.03;4.00;;;3.20;97.60;;;;;;5118880;28;20421;-44
2021/03/16 06:59:46;;;;;;;10.07;4.10;;;3.00;97.70;;;;;;5094388;28;20411;-43
2021/03/16 07:02:12;;;;;;;5.00;3.27;;;3.10;97.90;;;;;;5115529;28;20871;-43
2021/03/16 07:04:43;;;;;;;8.10;3.73;;;3.10;97.90;;;;;;5093267;28;20177;-41
2021/03/16 07:07:09;;;;;;;10.70;4.80;;;3.10;98.20;;;;;;5107522;28;20724;-40
2021/03/16 07:09:35;;;;;;;7.33;3.77;;;3.30;98.20;;;;;;5116591;28;20545;-41
2021/03/16 07:12:01;;;;;;;7.63;4.40;;;3.30;98.10;;;;;;5116750;28;20433;-43
2021/03/16 07:14:27;;;;;;;15.10;5.23;;;3.40;97.90;;;;;;5099508;28;20598;-43
2021/03/16 07:16:53;;;;;;;8.27;4.20;;;3.30;97.60;;;;;;5088272;28;20476;-43
2021/03/16 07:19:20;;;;;;;5.30;3.90;;;3.30;97.70;;;;;;5116918;28;20637;-43
2021/03/16 07:21:48;;;;;;;5.60;3.47;;;3.40;97.80;;;;;;5113078;28;20429;-43
2021/03/16 07:24:15;;;;;;;7.03;4.03;;;3.20;97.60;;;;;;5094452;28;20419;-43
2021/03/16 07:26:41;;;;;;;5.00;3.50;;;3.10;97.90;;;;;;5089567;28;20811;-40
2021/03/16 07:29:07;;;;;;;6.10;4.20;;;3.10;97.90;;;;;;5116954;28;20492;-42
2021/03/16 07:31:34;;;;;;;6.60;4.27;;;3.10;97.80;;;;;;5116453;28;20182;-39
2021/03/16 07:34:10;;;;;;;10.63;3.63;;;3.10;98.20;;;;;;5098317;28;20552;-40
2021/03/16 07:36:37;;;;;;;9.50;4.63;;;3.20;98.00;;;;;;5095773;28;20448;-40
2021/03/16 07:39:05;;;;;;;5.30;3.40;;;3.40;97.90;;;;;;5117033;28;20449;-42
2021/03/16 07:41:32;;;;;;;6.53;3.43;;;3.50;97.40;;;;;;5099465;28;20914;-42
2021/03/16 07:44:07;;;;;;;5.23;3.30;;;3.60;97.10;;;;;;5079882;28;20754;-43
2021/03/16 07:46:39;;;;;;;7.20;3.90;;;3.70;97.10;;;;;;5093341;28;20828;-41
2021/03/16 07:49:05;;;;;;;7.37;3.03;;;4.00;96.50;;;;;;5115995;28;20422;-41
2021/03/16 07:51:33;;;;;;;7.83;3.27;;;3.90;95.60;;;;;;5098545;28;20470;-41
2021/03/16 07:54:04;;;;;;;6.07;3.23;;;3.90;95.70;;;;;;5078233;28;20425;-41
2021/03/16 07:56:33;;;;;;;6.03;2.83;;;3.90;95.50;;;;;;5096359;28;20422;-43
2021/03/16 07:59:00;;;;;;;8.90;4.27;;;4.90;99.90;;;;;;5118949;28;20436;-41
2021/03/16 08:01:25;;;;;;;5.10;2.40;;;6.20;98.00;;;;;;5118971;28;20425;-42
2021/03/16 08:04:09;;;;;;;6.63;2.80;;;6.60;97.40;;;;;;5117464;28;20422;-40
2021/03/16 08:06:36;;;;;;;6.03;3.33;;;6.30;91.30;;;;;;5119417;28;20443;-43
2021/03/16 08:09:03;;;;;;;12.30;3.37;;;5.80;91.50;;;;;;5122070;27;20830;-42
2021/03/16 08:11:40;;;;;;;8.53;3.30;;;5.90;91.90;;;;;;5121367;27;20420;-42
2021/03/16 08:14:06;;;;;;;6.93;2.80;;;5.60;91.60;;;;;;5121566;27;20425;-40
2021/03/16 08:16:44;;;;;;;8.97;3.30;;;5.40;92.20;;;;;;5124698;27;20572;-42
2021/03/16 08:19:18;;;;;;;7.03;2.90;;;5.50;92.40;;;;;;5119794;27;20451;-42
2021/03/16 08:21:44;;;;;;;7.37;3.67;;;5.50;92.30;;;;;;5137573;27;20846;-43
2021/03/16 08:24:14;;;;;;;8.63;3.80;;;5.80;92.20;;;;;;5137886;27;20413;-43
2021/03/16 08:26:47;;;;;;;7.10;3.23;;;6.20;91.80;;;;;;5137729;27;20826;-43
2021/03/16 08:29:13;;;;;;;6.10;3.50;;;6.50;91.30;;;;;;5136414;27;20672;-41
2021/03/16 08:31:40;;;;;;;9.07;3.20;;;6.60;90.70;;;;;;5136560;27;20413;-42
2021/03/16 08:34:10;;;;;;;8.10;3.07;;;6.70;90.40;;;;;;5135347;27;20439;-42
2021/03/16 08:36:43;;;;;;;8.03;3.30;;;6.30;90.50;;;;;;5136165;27;20480;-39
2021/03/16 08:39:10;;;;;;;14.60;4.83;;;6.10;90.60;;;;;;5135871;27;20473;-43
2021/03/16 08:41:35;;;;;;;7.20;4.37;;;6.00;91.10;;;;;;5137693;27;20436;-41
2021/03/16 08:44:01;;;;;;;6.90;3.33;;;5.80;91.50;;;;;;5137582;27;20412;-40
2021/03/16 08:46:31;;;;;;;8.80;3.80;;;5.70;91.40;;;;;;5137636;27;20212;-41
2021/03/16 08:48:57;;;;;;;7.37;3.50;;;5.60;92.20;;;;;;5138691;27;20190;-42
2021/03/16 08:51:26;;;;;;;7.63;3.27;;;5.70;92.20;;;;;;5138575;27;20818;-41
2021/03/16 08:53:52;;;;;;;6.50;2.77;;;5.80;91.80;;;;;;5137680;27;20198;-40
2021/03/16 08:56:24;;;;;;;7.93;4.13;;;5.80;91.70;;;;;;5137988;27;20409;-38
2021/03/16 08:58:50;;;;;;;8.13;3.80;;;5.50;92.10;;;;;;5138579;27;20191;-43
2021/03/16 09:01:29;;;;;;;8.27;4.00;;;5.00;93.00;;;;;;5137544;27;20818;-43
2021/03/16 09:03:57;;;;;;;7.43;4.00;;;5.00;93.40;;;;;;5136732;27;20515;-40
2021/03/16 09:06:23;;;;;;;9.60;3.87;;;4.90;93.20;;;;;;5137744;27;20791;-43
2021/03/16 09:08:50;;;;;;;9.20;4.00;;;4.60;93.80;;;;;;5137948;27;20432;-40
2021/03/16 09:11:29;;;;;;;8.20;3.60;;;4.50;94.60;;;;;;5136988;27;20217;-42
2021/03/16 09:14:09;;;;;;;11.90;4.17;;;4.70;94.80;;;;;;5137861;27;20432;-41
2021/03/16 09:16:38;;;;;;;7.53;4.40;;;4.70;94.80;;;;;;5136756;27;20460;-41
2021/03/16 09:19:04;;;;;;;8.57;4.10;;;4.60;95.10;;;;;;5136832;27;20427;-40
2021/03/16 09:21:29;;;;;;;10.93;4.13;;;4.80;94.80;;;;;;5136087;27;20854;-41
2021/03/16 09:24:02;;;;;;;5.13;3.63;;;4.90;94.70;;;;;;5135726;27;20239;-40
2021/03/16 09:26:28;;;;;;;9.70;4.43;;;4.80;94.70;;;;;;5137369;27;20175;-40
2021/03/16 09:28:53;;;;;;;10.70;4.67;;;4.90;94.90;;;;;;5134481;27;20428;-41
2021/03/16 09:31:20;;;;;;;8.00;3.80;;;5.10;94.50;;;;;;5119196;27;20427;-41
2021/03/16 09:33:46;;;;;;;7.50;3.43;;;5.10;94.20;;;;;;5120804;27;20190;-42
2021/03/16 09:36:12;;;;;;;11.00;4.20;;;5.10;94.20;;;;;;5138351;27;20404;-42
2021/03/16 09:38:38;;;;;;;8.57;3.47;;;5.20;94.20;;;;;;5138364;27;20210;-42
2021/03/16 09:41:09;;;;;;;7.30;4.17;;;5.10;94.70;;;;;;5137417;27;20401;-41
2021/03/16 09:43:37;;;;;;;7.37;4.10;;;5.00;95.50;;;;;;5129891;27;21469;-42
2021/03/16 09:46:12;;;;;;;12.30;4.90;;;4.90;96.20;;;;;;5134456;27;20433;-41
2021/03/16 09:48:40;;;;;;;5.63;3.90;;;4.80;96.80;;;;;;5137645;27;20531;-41
2021/03/16 09:51:10;;;;;;;7.80;3.67;;;4.90;97.20;;;;;;5137518;27;20492;-41
2021/03/16 09:53:36;;;;;;;8.17;4.37;;;5.00;96.90;;;;;;5134837;28;20424;-41
2021/03/16 09:56:03;;;;;;;10.10;4.40;;;5.10;96.00;;;;;;5133634;28;20864;-42
2021/03/16 09:58:29;;;;;;;8.77;4.50;;;5.00;95.90;;;;;;5137530;28;20187;-40
2021/03/16 10:00:55;;;;;;;7.67;4.30;;;5.20;96.30;;;;;;5137338;28;20416;-41
2021/03/16 10:03:22;;;;;;;7.70;5.27;;;5.40;95.50;;;;;;5137486;28;20421;-43
2021/03/16 10:05:48;;;;;;;9.73;4.60;;;5.50;95.00;;;;;;5137625;28;20419;-40
2021/03/16 10:08:24;;;;;;;7.87;4.70;;;5.50;94.50;;;;;;5137623;28;20681;-41
2021/03/16 10:10:53;;;;;;;8.43;4.37;;;5.50;94.90;;;;;;5136821;28;20412;-40
2021/03/16 10:13:36;;;;;;;7.37;4.17;;;5.40;94.60;;;;;;5136172;28;20429;-42
2021/03/16 10:16:09;;;;;;;7.90;4.60;;;5.60;94.60;;;;;;5137583;27;20521;-41
2021/03/16 10:18:53;;;;;;;10.07;4.30;;;5.60;93.70;;;;;;5142084;27;20497;-41
2021/03/16 10:21:28;;;;;;;8.13;4.60;;;5.70;93.60;;;;;;5122070;27;20425;-43
2021/03/16 10:23:57;;;;;;;13.40;4.40;;;5.70;93.40;;;;;;5104856;27;20475;-43
2021/03/16 10:26:23;;;;;;;8.60;4.53;;;5.60;93.30;;;;;;5121610;27;20412;-42
2021/03/16 10:28:48;;;;;;;13.13;6.20;;;5.60;93.10;;;;;;5140158;27;20447;-42
2021/03/16 10:31:15;;;;;;;9.27;5.03;;;5.50;93.30;;;;;;5139881;27;20537;-42
2021/03/16 10:33:43;;;;;;;14.43;6.60;;;5.50;93.80;;;;;;5137948;27;20191;-43
2021/03/16 10:36:09;;;;;;;14.60;7.13;;;5.70;94.30;;;;;;5137980;27;20431;-42
2021/03/16 10:38:35;;;;;;;8.37;4.90;;;5.80;93.90;;;;;;5138483;27;20428;-41
2021/03/16 10:41:01;;;;;;;8.83;4.70;;;6.00;93.60;;;;;;5135644;27;20186;-42
2021/03/16 10:43:27;;;;;;;13.80;4.77;;;6.10;93.20;;;;;;5136948;27;20436;-40
2021/03/16 10:45:54;;;;;;;21.63;9.20;;;6.30;93.00;;;;;;5138464;27;20488;-44
2021/03/16 10:48:20;;;;;;;15.33;10.80;;;6.50;92.60;;;;;;5140683;27;20207;-43
2021/03/16 10:50:45;;;;;;;11.47;6.80;;;6.70;92.30;;;;;;5139797;27;20856;-44
2021/03/16 10:53:13;;;;;;;12.17;6.27;;;6.80;92.30;;;;;;5139161;27;20473;-42
2021/03/16 10:55:39;;;;;;;7.03;4.40;;;6.90;91.70;;;;;;5122866;27;20190;-43
2021/03/16 10:58:04;;;;;;;10.17;4.90;;;7.00;91.00;;;;;;5139833;27;20436;-44
2021/03/16 11:00:30;;;;;;;6.37;4.13;;;7.30;92.70;;;;;;5139734;27;20201;-44
2021/03/16 11:02:56;;;;;;;8.43;4.90;;;7.60;91.10;;;;;;5122918;27;20179;-44
2021/03/16 11:05:21;;;;;;;4.03;3.30;;;8.20;90.00;;;;;;5139095;27;20269;-45
2021/03/16 11:07:47;;;;;;;7.77;3.73;;;7.90;85.80;;;;;;5138415;27;20203;-44
2021/03/16 11:10:13;;;;;;;6.60;3.80;;;8.00;85.70;;;;;;5138789;27;20190;-45
2021/03/16 11:12:39;;;;;;;5.13;3.03;;;7.90;85.20;;;;;;5138271;27;20376;-35
2021/03/16 11:15:05;;;;;;;6.67;3.00;;;8.00;84.70;;;;;;5137620;27;20444;-43
2021/03/16 11:17:31;;;;;;;7.70;3.23;;;8.20;85.30;;;;;;5138615;27;20269;-43
2021/03/16 11:19:56;;;;;;;6.70;3.40;;;8.00;83.60;;;;;;5138701;27;20897;-42
2021/03/16 11:22:22;;;;;;;5.40;2.97;;;8.10;83.40;;;;;;5138764;27;20182;-43
2021/03/16 11:24:50;;;;;;;7.43;3.57;;;8.00;82.90;;;;;;5138814;27;20199;-43
2021/03/16 11:27:16;;;;;;;17.10;8.13;;;7.80;82.60;;;;;;5139717;27;20231;-43
2021/03/16 11:29:42;;;;;;;6.60;3.57;;;8.00;83.80;;;;;;5140211;27;20444;-42
2021/03/16 11:32:07;;;;;;;9.30;3.40;;;7.80;83.70;;;;;;5140049;27;20668;-42
2021/03/16 11:34:34;;;;;;;9.27;3.90;;;7.50;83.20;;;;;;5139372;27;20413;-41
2021/03/16 11:37:00;;;;;;;6.20;3.70;;;7.30;84.30;;;;;;5122345;27;20214;-43
2021/03/16 11:39:26;;;;;;;7.33;4.23;;;7.20;85.40;;;;;;5141221;27;20448;-42
2021/03/16 11:41:51;;;;;;;7.63;5.23;;;7.00;86.10;;;;;;5140894;27;20171;-43
2021/03/16 11:44:17;;;;;;;8.47;4.60;;;7.00;86.20;;;;;;5139615;27;20213;-41
2021/03/16 11:46:42;;;;;;;8.27;6.40;;;7.00;85.90;;;;;;5138575;27;20198;-40
2021/03/16 11:49:08;;;;;;;6.37;4.53;;;7.00;85.00;;;;;;5138102;27;20484;-42
2021/03/16 11:51:34;;;;;;;10.53;5.50;;;7.50;84.90;;;;;;5138178;27;20205;-41
2021/03/16 11:54:00;;;;;;;9.67;4.50;;;7.80;83.40;;;;;;5137927;27;20210;-43
2021/03/16 11:56:26;;;;;;;4.10;2.63;;;8.10;81.70;;;;;;5137989;27;20432;-43
2021/03/16 11:58:51;;;;;;;6.73;3.80;;;8.80;79.80;;;;;;5136778;27;20198;-41
2021/03/16 12:01:17;;;;;;;5.90;3.33;;;9.00;77.00;;;;;;5137657;27;20413;-43
2021/03/16 12:03:43;;;;;;;7.53;4.80;;;8.80;77.00;;;;;;5119078;27;20171;-43
2021/03/16 12:06:10;;;;;;;8.30;3.57;;;9.10;74.90;;;;;;5137060;27;20175;-42
2021/03/16 12:08:36;;;;;;;8.50;3.33;;;9.10;73.60;;;;;;5119571;27;20203;-42
2021/03/16 12:11:03;;;;;;;4.43;2.83;;;9.20;72.60;;;;;;5139234;27;20474;-43
2021/03/16 12:13:28;;;;;;;3.57;2.53;;;9.60;70.70;;;;;;5119954;27;20523;-41
2021/03/16 12:15:54;;;;;;;6.97;3.07;;;10.20;66.60;;;;;;5138231;27;20562;-41
2021/03/16 12:18:19;;;;;;;5.63;2.90;;;10.00;64.60;;;;;;5137145;27;20486;-43
2021/03/16 12:20:45;;;;;;;6.93;3.00;;;9.90;66.20;;;;;;5137575;27;20195;-42
2021/03/16 12:23:11;;;;;;;4.10;2.70;;;9.60;65.10;;;;;;5135835;27;20198;-42
2021/03/16 12:25:36;;;;;;;5.43;2.40;;;9.00;66.50;;;;;;5135677;27;20190;-42
2021/03/16 12:28:02;;;;;;;6.00;2.43;;;8.20;66.60;;;;;;5136118;27;20217;-42
2021/03/16 12:30:28;;;;;;;4.43;2.33;;;7.50;70.20;;;;;;5135730;27;20218;-41
2021/03/16 12:32:54;;;;;;;9.33;2.33;;;7.90;69.60;;;;;;5134780;27;20850;-41
2021/03/16 12:35:19;;;;;;;5.67;2.20;;;7.80;68.70;;;;;;5134698;27;20421;-41
2021/03/16 12:37:46;;;;;;;4.90;2.03;;;7.30;68.10;;;;;;5137119;27;20193;-42
2021/03/16 12:40:12;;;;;;;4.10;1.90;;;8.50;70.10;;;;;;5139101;27;20484;-41
2021/03/16 12:42:38;;;;;;;3.53;1.57;;;10.80;62.70;;;;;;5139076;27;20703;-42
2021/03/16 12:45:07;;;;;;;2.93;1.80;;;11.20;56.90;;;;;;5135126;27;20459;-41
2021/03/16 12:47:33;;;;;;;5.27;1.80;;;12.00;55.40;;;;;;5135116;27;20468;-42
2021/03/16 12:49:58;;;;;;;5.00;1.80;;;12.10;53.10;;;;;;5135626;27;20412;-42
2021/03/16 12:52:24;;;;;;;8.07;2.33;;;11.90;51.80;;;;;;5135385;27;20171;-42
2021/03/16 12:54:50;;;;;;;3.93;1.60;;;11.60;52.50;;;;;;5135013;27;20179;-41
2021/03/16 12:57:17;;;;;;;5.17;2.20;;;10.40;51.80;;;;;;5136709;27;20252;-43